ANA872 RPLL-ROAH
Flight info
| Callsign | ANA872 |
|---|---|
| Flight time | 2h 4m |
| Altitude | 41000 |
| Route | CAB2R CAB DCT CUY DCT DADNU DCT GUMBO DCT ENTOK |
| Aircraft | B788/H-SDE1E2E3FGHIJ2J3J4J5M1RWXY/LB1D1 |
Departure
| Time | 2026-04-23 12:04 |
|---|---|
| Airport | Ninoy Aquino International Airport (RPLL) |
Arrival
| Time | 2026-04-23 14:08 |
|---|---|
| Airport | Naha International Airport (ROAH) |
| Time | Latitude | Longitude | Altitude | Speed | Heading |
|---|---|---|---|---|---|
| 2026-04-23 11:21 | 14.51660 | 121.01521 | 42 ft | 0 kts | 45° |
| 2026-04-23 11:48 | 14.51653 | 121.01513 | 41 ft | 2 kts | 45° |
| 2026-04-23 11:49 | 14.51641 | 121.01501 | 39 ft | 2 kts | 46° |
| 2026-04-23 11:49 | 14.51630 | 121.01488 | 38 ft | 2 kts | 48° |
| 2026-04-23 11:49 | 14.51619 | 121.01475 | 40 ft | 2 kts | 51° |
| 2026-04-23 11:49 | 14.51610 | 121.01461 | 39 ft | 2 kts | 59° |
| 2026-04-23 11:50 | 14.51605 | 121.01445 | 38 ft | 2 kts | 88° |
| 2026-04-23 11:50 | 14.51610 | 121.01432 | 39 ft | 1 kts | 126° |
| 2026-04-23 11:50 | 14.51612 | 121.01431 | 39 ft | 0 kts | 128° |
| 2026-04-23 11:50 | 14.51610 | 121.01433 | 39 ft | 0 kts | 128° |
| 2026-04-23 11:53 | 14.51607 | 121.01436 | 42 ft | 1 kts | 130° |
| 2026-04-23 11:53 | 14.51596 | 121.01451 | 41 ft | 4 kts | 130° |
| 2026-04-23 11:54 | 14.51577 | 121.01470 | 42 ft | 5 kts | 134° |
| 2026-04-23 11:54 | 14.51548 | 121.01500 | 41 ft | 7 kts | 135° |
| 2026-04-23 11:54 | 14.51512 | 121.01536 | 40 ft | 8 kts | 136° |
| 2026-04-23 11:54 | 14.51467 | 121.01580 | 38 ft | 10 kts | 135° |
| 2026-04-23 11:55 | 14.51415 | 121.01634 | 39 ft | 11 kts | 135° |
| 2026-04-23 11:55 | 14.51356 | 121.01696 | 38 ft | 13 kts | 135° |
| 2026-04-23 11:55 | 14.51291 | 121.01764 | 38 ft | 14 kts | 134° |
| 2026-04-23 11:55 | 14.51221 | 121.01834 | 36 ft | 14 kts | 136° |
| 2026-04-23 11:56 | 14.51152 | 121.01903 | 38 ft | 14 kts | 135° |
| 2026-04-23 11:56 | 14.51088 | 121.01968 | 40 ft | 12 kts | 144° |
| 2026-04-23 11:56 | 14.51034 | 121.01964 | 41 ft | 7 kts | 230° |
| 2026-04-23 11:56 | 14.51003 | 121.01909 | 38 ft | 12 kts | 239° |
| 2026-04-23 11:57 | 14.50952 | 121.01822 | 34 ft | 16 kts | 239° |
| 2026-04-23 11:57 | 14.50904 | 121.01735 | 40 ft | 12 kts | 239° |
| 2026-04-23 11:57 | 14.50872 | 121.01680 | 45 ft | 6 kts | 240° |
| 2026-04-23 11:57 | 14.50857 | 121.01654 | 47 ft | 2 kts | 239° |
| 2026-04-23 11:58 | 14.50854 | 121.01647 | 47 ft | 0 kts | 239° |
| 2026-04-23 11:58 | 14.50849 | 121.01639 | 48 ft | 4 kts | 239° |
| 2026-04-23 11:58 | 14.50825 | 121.01597 | 50 ft | 10 kts | 240° |
| 2026-04-23 11:58 | 14.50778 | 121.01510 | 48 ft | 18 kts | 240° |
| 2026-04-23 11:59 | 14.50703 | 121.01373 | 52 ft | 26 kts | 240° |
| 2026-04-23 11:59 | 14.50610 | 121.01208 | 58 ft | 25 kts | 240° |
| 2026-04-23 11:59 | 14.50538 | 121.01078 | 58 ft | 21 kts | 240° |
| 2026-04-23 11:59 | 14.50469 | 121.00954 | 60 ft | 19 kts | 241° |
| 2026-04-23 12:00 | 14.50404 | 121.00838 | 66 ft | 18 kts | 240° |
| 2026-04-23 12:00 | 14.50342 | 121.00727 | 66 ft | 17 kts | 239° |
| 2026-04-23 12:00 | 14.50284 | 121.00622 | 66 ft | 16 kts | 241° |
| 2026-04-23 12:00 | 14.50229 | 121.00521 | 73 ft | 16 kts | 239° |
| 2026-04-23 12:01 | 14.50174 | 121.00424 | 69 ft | 15 kts | 240° |
| 2026-04-23 12:01 | 14.50123 | 121.00333 | 85 ft | 14 kts | 240° |
| 2026-04-23 12:01 | 14.50075 | 121.00247 | 82 ft | 14 kts | 240° |
| 2026-04-23 12:01 | 14.50027 | 121.00163 | 88 ft | 13 kts | 239° |
| 2026-04-23 12:02 | 14.49984 | 121.00085 | 89 ft | 12 kts | 240° |
| 2026-04-23 12:02 | 14.49945 | 121.00014 | 89 ft | 7 kts | 240° |
| 2026-04-23 12:02 | 14.49925 | 120.99983 | 92 ft | 3 kts | 224° |
| 2026-04-23 12:02 | 14.49905 | 120.99972 | 93 ft | 5 kts | 196° |
| 2026-04-23 12:03 | 14.49852 | 120.99983 | 92 ft | 11 kts | 150° |
| 2026-04-23 12:03 | 14.49820 | 121.00071 | 91 ft | 18 kts | 66° |
| 2026-04-23 12:03 | 14.49903 | 121.00221 | 93 ft | 39 kts | 60° |
| 2026-04-23 12:03 | 14.50168 | 121.00700 | 69 ft | 117 kts | 60° |
| 2026-04-23 12:04 | 14.50691 | 121.01637 | 253 ft | 174 kts | 63° |
| 2026-04-23 12:04 | 14.51334 | 121.02803 | 1020 ft | 204 kts | 64° |
| 2026-04-23 12:04 | 14.52046 | 121.04197 | 1831 ft | 231 kts | 69° |
| 2026-04-23 12:04 | 14.52695 | 121.05664 | 3282 ft | 220 kts | 69° |
| 2026-04-23 12:05 | 14.53200 | 121.07119 | 4575 ft | 210 kts | 78° |
| 2026-04-23 12:05 | 14.53605 | 121.08554 | 5751 ft | 207 kts | 68° |
| 2026-04-23 12:05 | 14.54501 | 121.09713 | 6792 ft | 205 kts | 47° |
| 2026-04-23 12:05 | 14.55593 | 121.10708 | 7512 ft | 225 kts | 24° |
| 2026-04-23 12:06 | 14.57199 | 121.10821 | 8098 ft | 252 kts | 348° |
| 2026-04-23 12:06 | 14.58968 | 121.10272 | 8677 ft | 278 kts | 343° |
| 2026-04-23 12:06 | 14.62958 | 121.09611 | 10427 ft | 301 kts | 359° |
| 2026-04-23 12:07 | 14.65142 | 121.09520 | 10868 ft | 327 kts | 358° |
| 2026-04-23 12:07 | 14.67505 | 121.09340 | 11246 ft | 354 kts | 355° |
| 2026-04-23 12:07 | 14.70031 | 121.09086 | 11945 ft | 366 kts | 355° |
| 2026-04-23 12:07 | 14.72580 | 121.08856 | 12958 ft | 370 kts | 355° |
| 2026-04-23 12:08 | 14.75177 | 121.08651 | 13873 ft | 376 kts | 355° |
| 2026-04-23 12:08 | 14.77802 | 121.08437 | 14729 ft | 381 kts | 355° |
| 2026-04-23 12:08 | 14.80459 | 121.08206 | 15595 ft | 386 kts | 355° |
| 2026-04-23 12:08 | 14.83153 | 121.07972 | 16434 ft | 391 kts | 355° |
| 2026-04-23 12:09 | 14.85874 | 121.07743 | 17235 ft | 396 kts | 354° |
| 2026-04-23 12:09 | 14.88649 | 121.07509 | 18042 ft | 401 kts | 354° |
| 2026-04-23 12:09 | 14.91413 | 121.07274 | 18724 ft | 406 kts | 354° |
| 2026-04-23 12:09 | 14.94248 | 121.07032 | 19393 ft | 411 kts | 354° |
| 2026-04-23 12:10 | 14.97123 | 121.06787 | 19847 ft | 421 kts | 354° |
| 2026-04-23 12:10 | 15.00067 | 121.06537 | 19885 ft | 424 kts | 354° |
| 2026-04-23 12:10 | 15.02994 | 121.06289 | 20335 ft | 420 kts | 354° |
| 2026-04-23 12:10 | 15.05881 | 121.06043 | 21074 ft | 422 kts | 354° |
| 2026-04-23 12:11 | 15.08846 | 121.05790 | 21702 ft | 427 kts | 354° |
| 2026-04-23 12:11 | 15.11822 | 121.05536 | 22336 ft | 431 kts | 354° |
| 2026-04-23 12:11 | 15.14841 | 121.05279 | 22960 ft | 436 kts | 354° |
| 2026-04-23 12:11 | 15.17879 | 121.05021 | 23532 ft | 440 kts | 354° |
| 2026-04-23 12:12 | 15.20939 | 121.04760 | 24037 ft | 444 kts | 354° |
| 2026-04-23 12:12 | 15.24035 | 121.04496 | 24536 ft | 447 kts | 354° |
| 2026-04-23 12:12 | 15.27152 | 121.04230 | 25022 ft | 451 kts | 354° |
| 2026-04-23 12:12 | 15.30290 | 121.03963 | 25505 ft | 454 kts | 354° |
| 2026-04-23 12:13 | 15.33456 | 121.03692 | 25982 ft | 458 kts | 354° |
| 2026-04-23 12:13 | 15.36642 | 121.03420 | 26450 ft | 461 kts | 354° |
| 2026-04-23 12:13 | 15.39850 | 121.03147 | 26928 ft | 465 kts | 354° |
| 2026-04-23 12:13 | 15.43045 | 121.02874 | 27367 ft | 468 kts | 355° |
| 2026-04-23 12:14 | 15.46307 | 121.02757 | 27805 ft | 471 kts | 4° |
| 2026-04-23 12:14 | 15.49547 | 121.03336 | 28248 ft | 474 kts | 17° |
| 2026-04-23 12:14 | 15.52625 | 121.04605 | 28657 ft | 478 kts | 26° |
| 2026-04-23 12:14 | 15.55637 | 121.06095 | 29053 ft | 481 kts | 26° |
| 2026-04-23 12:15 | 15.58656 | 121.07599 | 29489 ft | 484 kts | 26° |
| 2026-04-23 12:15 | 15.61712 | 121.09118 | 29882 ft | 487 kts | 26° |
| 2026-04-23 12:15 | 15.64785 | 121.10639 | 30245 ft | 489 kts | 26° |
| 2026-04-23 12:15 | 15.67869 | 121.12168 | 30607 ft | 491 kts | 26° |
| 2026-04-23 12:16 | 15.70911 | 121.13680 | 30957 ft | 493 kts | 26° |
| 2026-04-23 12:16 | 15.74053 | 121.15242 | 31302 ft | 494 kts | 26° |
| 2026-04-23 12:16 | 15.77159 | 121.16784 | 31653 ft | 496 kts | 26° |
| 2026-04-23 12:16 | 15.80277 | 121.18333 | 31979 ft | 497 kts | 26° |
| 2026-04-23 12:17 | 15.83406 | 121.19889 | 32306 ft | 498 kts | 26° |
| 2026-04-23 12:17 | 15.86529 | 121.21443 | 32624 ft | 499 kts | 26° |
| 2026-04-23 12:17 | 15.89669 | 121.23005 | 32927 ft | 500 kts | 26° |
| 2026-04-23 12:17 | 15.92812 | 121.24568 | 33240 ft | 501 kts | 26° |
| 2026-04-23 12:18 | 15.95968 | 121.26140 | 33552 ft | 502 kts | 26° |
| 2026-04-23 12:18 | 15.98046 | 121.27175 | 33840 ft | 501 kts | 26° |
| 2026-04-23 12:18 | 16.01188 | 121.28741 | 34225 ft | 499 kts | 26° |
| 2026-04-23 12:18 | 16.04322 | 121.30302 | 34551 ft | 498 kts | 26° |
| 2026-04-23 12:19 | 16.07446 | 121.31859 | 34882 ft | 497 kts | 26° |
| 2026-04-23 12:19 | 16.10555 | 121.33410 | 35238 ft | 495 kts | 26° |
| 2026-04-23 12:19 | 16.13660 | 121.34959 | 35599 ft | 494 kts | 26° |
| 2026-04-23 12:19 | 16.16752 | 121.36502 | 35941 ft | 492 kts | 26° |
| 2026-04-23 12:20 | 16.19834 | 121.38041 | 36285 ft | 491 kts | 26° |
| 2026-04-23 12:20 | 16.22907 | 121.39575 | 36641 ft | 489 kts | 26° |
| 2026-04-23 12:20 | 16.25968 | 121.41104 | 36967 ft | 488 kts | 26° |
| 2026-04-23 12:20 | 16.29032 | 121.42635 | 37287 ft | 487 kts | 26° |
| 2026-04-23 12:21 | 16.32079 | 121.44159 | 37612 ft | 486 kts | 26° |
| 2026-04-23 12:21 | 16.35125 | 121.45682 | 37936 ft | 485 kts | 25° |
| 2026-04-23 12:21 | 16.38165 | 121.47202 | 38255 ft | 484 kts | 25° |
| 2026-04-23 12:21 | 16.41187 | 121.48715 | 38571 ft | 482 kts | 25° |
| 2026-04-23 12:22 | 16.44209 | 121.50228 | 38823 ft | 481 kts | 25° |
| 2026-04-23 12:22 | 16.47230 | 121.51741 | 39058 ft | 481 kts | 25° |
| 2026-04-23 12:22 | 16.50248 | 121.53253 | 39292 ft | 480 kts | 25° |
| 2026-04-23 12:22 | 16.53255 | 121.54759 | 39529 ft | 480 kts | 25° |
| 2026-04-23 12:23 | 16.56229 | 121.56250 | 39727 ft | 480 kts | 25° |
| 2026-04-23 12:23 | 16.59239 | 121.57760 | 39946 ft | 479 kts | 25° |
| 2026-04-23 12:23 | 16.62243 | 121.59267 | 40167 ft | 479 kts | 25° |
| 2026-04-23 12:23 | 16.65242 | 121.60771 | 40368 ft | 479 kts | 25° |
| 2026-04-23 12:24 | 16.68246 | 121.62280 | 40574 ft | 479 kts | 25° |
| 2026-04-23 12:24 | 16.71211 | 121.63769 | 40792 ft | 478 kts | 25° |
| 2026-04-23 12:24 | 16.74217 | 121.65279 | 40903 ft | 480 kts | 25° |
| 2026-04-23 12:24 | 16.77232 | 121.66794 | 40898 ft | 482 kts | 25° |
| 2026-04-23 12:25 | 16.83231 | 121.69810 | 40897 ft | 479 kts | 25° |
| 2026-04-23 12:25 | 16.89258 | 121.72842 | 40896 ft | 477 kts | 25° |
| 2026-04-23 12:26 | 16.95163 | 121.75905 | 40906 ft | 477 kts | 27° |
| 2026-04-23 12:26 | 17.01105 | 121.79007 | 40909 ft | 478 kts | 26° |
| 2026-04-23 12:27 | 17.07020 | 121.82171 | 40911 ft | 478 kts | 26° |
| 2026-04-23 12:27 | 17.12962 | 121.85321 | 40912 ft | 478 kts | 26° |
| 2026-04-23 12:28 | 17.18887 | 121.88473 | 40916 ft | 478 kts | 26° |
| 2026-04-23 12:28 | 17.24818 | 121.91632 | 40921 ft | 478 kts | 26° |
| 2026-04-23 12:29 | 17.30748 | 121.94788 | 40925 ft | 479 kts | 26° |
| 2026-04-23 12:29 | 17.36667 | 121.97945 | 40931 ft | 480 kts | 26° |
| 2026-04-23 12:30 | 17.42624 | 122.01121 | 40935 ft | 480 kts | 26° |
| 2026-04-23 12:30 | 17.48581 | 122.04302 | 40937 ft | 480 kts | 26° |
| 2026-04-23 12:31 | 17.54532 | 122.07480 | 40935 ft | 480 kts | 26° |
| 2026-04-23 12:31 | 17.60479 | 122.10660 | 40935 ft | 480 kts | 26° |
| 2026-04-23 12:32 | 17.66397 | 122.13826 | 40940 ft | 480 kts | 26° |
| 2026-04-23 12:32 | 17.72351 | 122.17014 | 40938 ft | 480 kts | 26° |
| 2026-04-23 12:33 | 17.78306 | 122.20205 | 40934 ft | 480 kts | 26° |
| 2026-04-23 12:33 | 17.84372 | 122.23117 | 40972 ft | 479 kts | 14° |
| 2026-04-23 12:34 | 17.90904 | 122.24522 | 40938 ft | 480 kts | 10° |
| 2026-04-23 12:34 | 17.97461 | 122.25831 | 40936 ft | 479 kts | 10° |
| 2026-04-23 12:35 | 18.04014 | 122.27156 | 40939 ft | 480 kts | 10° |
| 2026-04-23 12:35 | 18.10574 | 122.28473 | 40937 ft | 480 kts | 10° |
| 2026-04-23 12:36 | 18.17131 | 122.29796 | 40937 ft | 479 kts | 10° |
| 2026-04-23 12:36 | 18.23639 | 122.31108 | 40939 ft | 479 kts | 10° |
| 2026-04-23 12:37 | 18.30182 | 122.32429 | 40935 ft | 479 kts | 10° |
| 2026-04-23 12:37 | 18.36726 | 122.33750 | 40932 ft | 478 kts | 10° |
| 2026-04-23 12:38 | 18.43262 | 122.35072 | 40932 ft | 479 kts | 10° |
| 2026-04-23 12:38 | 18.49813 | 122.36397 | 40934 ft | 479 kts | 10° |
| 2026-04-23 12:39 | 18.56370 | 122.37724 | 40933 ft | 479 kts | 10° |
| 2026-04-23 12:39 | 18.62877 | 122.39043 | 40935 ft | 479 kts | 10° |
| 2026-04-23 12:40 | 18.69434 | 122.40372 | 40938 ft | 479 kts | 10° |
| 2026-04-23 12:40 | 18.75995 | 122.41704 | 40939 ft | 480 kts | 10° |
| 2026-04-23 12:41 | 18.82558 | 122.43036 | 40936 ft | 480 kts | 9° |
| 2026-04-23 12:41 | 18.89126 | 122.44371 | 40938 ft | 481 kts | 10° |
| 2026-04-23 12:42 | 18.95692 | 122.45707 | 40940 ft | 481 kts | 9° |
| 2026-04-23 12:42 | 19.02220 | 122.47036 | 40939 ft | 480 kts | 9° |
| 2026-04-23 12:43 | 19.08784 | 122.48373 | 40938 ft | 481 kts | 9° |
| 2026-04-23 12:43 | 19.15359 | 122.49714 | 40939 ft | 481 kts | 9° |
| 2026-04-23 12:44 | 19.21944 | 122.51058 | 40940 ft | 482 kts | 9° |
| 2026-04-23 12:44 | 19.28521 | 122.52401 | 40940 ft | 481 kts | 9° |
| 2026-04-23 12:45 | 19.35098 | 122.53745 | 40938 ft | 481 kts | 9° |
| 2026-04-23 12:45 | 19.41662 | 122.55088 | 40941 ft | 480 kts | 9° |
| 2026-04-23 12:46 | 19.48231 | 122.56433 | 40942 ft | 481 kts | 9° |
| 2026-04-23 12:46 | 19.54759 | 122.57771 | 40938 ft | 481 kts | 9° |
| 2026-04-23 12:47 | 19.61329 | 122.59118 | 40937 ft | 480 kts | 9° |
| 2026-04-23 12:47 | 19.67894 | 122.60465 | 40937 ft | 481 kts | 8° |
| 2026-04-23 12:48 | 19.74430 | 122.61808 | 40942 ft | 481 kts | 8° |
| 2026-04-23 12:48 | 19.81004 | 122.63160 | 40938 ft | 480 kts | 8° |
| 2026-04-23 12:49 | 19.87556 | 122.64508 | 40939 ft | 480 kts | 8° |
| 2026-04-23 12:49 | 19.94124 | 122.65860 | 40939 ft | 481 kts | 8° |
| 2026-04-23 12:50 | 20.00704 | 122.67217 | 40939 ft | 481 kts | 8° |
| 2026-04-23 12:50 | 20.07288 | 122.68575 | 40937 ft | 482 kts | 8° |
| 2026-04-23 12:51 | 20.13880 | 122.69936 | 40936 ft | 482 kts | 8° |
| 2026-04-23 12:51 | 20.20420 | 122.71287 | 40939 ft | 481 kts | 8° |
| 2026-04-23 12:52 | 20.27001 | 122.72648 | 40937 ft | 480 kts | 8° |
| 2026-04-23 12:52 | 20.33555 | 122.74005 | 40934 ft | 480 kts | 8° |
| 2026-04-23 12:53 | 20.40133 | 122.75367 | 40933 ft | 480 kts | 7° |
| 2026-04-23 12:53 | 20.46698 | 122.76729 | 40934 ft | 481 kts | 7° |
| 2026-04-23 12:54 | 20.53287 | 122.78096 | 40932 ft | 483 kts | 7° |
| 2026-04-23 12:54 | 20.59846 | 122.79459 | 40931 ft | 483 kts | 7° |
| 2026-04-23 12:55 | 20.66443 | 122.80830 | 40934 ft | 482 kts | 7° |
| 2026-04-23 12:55 | 20.73032 | 122.82201 | 40927 ft | 481 kts | 7° |
| 2026-04-23 12:56 | 20.79603 | 122.83570 | 40925 ft | 481 kts | 7° |
| 2026-04-23 12:56 | 20.86180 | 122.84941 | 40927 ft | 482 kts | 7° |
| 2026-04-23 12:57 | 20.92775 | 122.86317 | 40924 ft | 484 kts | 7° |
| 2026-04-23 12:57 | 20.99391 | 122.87698 | 40924 ft | 484 kts | 7° |
| 2026-04-23 12:58 | 21.06007 | 122.89081 | 40921 ft | 485 kts | 7° |
| 2026-04-23 12:58 | 21.12644 | 122.90470 | 40920 ft | 486 kts | 7° |
| 2026-04-23 12:59 | 21.19286 | 122.91861 | 40918 ft | 486 kts | 7° |
| 2026-04-23 12:59 | 21.25875 | 122.93242 | 40920 ft | 485 kts | 7° |
| 2026-04-23 13:00 | 21.32498 | 122.94631 | 40915 ft | 485 kts | 7° |
| 2026-04-23 13:00 | 21.39124 | 122.96022 | 40918 ft | 485 kts | 7° |
| 2026-04-23 13:01 | 21.45742 | 122.97413 | 40915 ft | 484 kts | 7° |
| 2026-04-23 13:01 | 21.52354 | 122.98804 | 40907 ft | 484 kts | 6° |
| 2026-04-23 13:02 | 21.58967 | 123.00196 | 40907 ft | 485 kts | 6° |
| 2026-04-23 13:02 | 21.65605 | 123.01595 | 40906 ft | 487 kts | 6° |
| 2026-04-23 13:03 | 21.72258 | 123.02999 | 40898 ft | 488 kts | 6° |
| 2026-04-23 13:03 | 21.78932 | 123.04408 | 40899 ft | 488 kts | 6° |
| 2026-04-23 13:04 | 21.85595 | 123.05817 | 40898 ft | 487 kts | 6° |
| 2026-04-23 13:04 | 21.91113 | 123.06984 | 40900 ft | 486 kts | 6° |
| 2026-04-23 13:05 | 21.98831 | 123.08618 | 40894 ft | 486 kts | 6° |
| 2026-04-23 13:05 | 22.05467 | 123.10024 | 40893 ft | 487 kts | 6° |
| 2026-04-23 13:06 | 22.14382 | 123.11916 | 40890 ft | 488 kts | 6° |
| 2026-04-23 13:07 | 22.22136 | 123.13563 | 40886 ft | 489 kts | 6° |
| 2026-04-23 13:07 | 22.27719 | 123.14751 | 40890 ft | 487 kts | 6° |
| 2026-04-23 13:08 | 22.34332 | 123.16158 | 40883 ft | 487 kts | 6° |
| 2026-04-23 13:08 | 22.40996 | 123.17578 | 40884 ft | 488 kts | 6° |
| 2026-04-23 13:09 | 22.47629 | 123.18993 | 40883 ft | 488 kts | 6° |
| 2026-04-23 13:09 | 22.54295 | 123.20415 | 40882 ft | 489 kts | 6° |
| 2026-04-23 13:10 | 22.60977 | 123.21843 | 40880 ft | 489 kts | 6° |
| 2026-04-23 13:10 | 22.67653 | 123.23271 | 40876 ft | 490 kts | 6° |
| 2026-04-23 13:11 | 22.74347 | 123.24705 | 40879 ft | 490 kts | 7° |
| 2026-04-23 13:11 | 22.77638 | 123.25732 | 40894 ft | 497 kts | 18° |
| 2026-04-23 13:11 | 22.80828 | 123.27221 | 40863 ft | 500 kts | 19° |
| 2026-04-23 13:12 | 22.87194 | 123.30269 | 40875 ft | 500 kts | 19° |
| 2026-04-23 13:12 | 22.93564 | 123.33305 | 40871 ft | 500 kts | 19° |
| 2026-04-23 13:13 | 22.99937 | 123.36354 | 40880 ft | 501 kts | 19° |
| 2026-04-23 13:13 | 23.06321 | 123.39408 | 40875 ft | 502 kts | 19° |
| 2026-04-23 13:14 | 23.12685 | 123.42457 | 40877 ft | 502 kts | 19° |
| 2026-04-23 13:14 | 23.19056 | 123.45513 | 40877 ft | 501 kts | 19° |
| 2026-04-23 13:15 | 23.25454 | 123.48584 | 40877 ft | 501 kts | 19° |
| 2026-04-23 13:15 | 23.31829 | 123.51647 | 40877 ft | 500 kts | 18° |
| 2026-04-23 13:16 | 23.38207 | 123.54715 | 40883 ft | 501 kts | 18° |
| 2026-04-23 13:16 | 23.44586 | 123.57787 | 40884 ft | 502 kts | 18° |
| 2026-04-23 13:17 | 23.50932 | 123.60847 | 40881 ft | 502 kts | 18° |
| 2026-04-23 13:17 | 23.57300 | 123.63920 | 40882 ft | 501 kts | 18° |
| 2026-04-23 13:18 | 23.63678 | 123.67001 | 40884 ft | 500 kts | 18° |
| 2026-04-23 13:18 | 23.70048 | 123.70081 | 40888 ft | 499 kts | 18° |
| 2026-04-23 13:19 | 23.76409 | 123.73161 | 40887 ft | 500 kts | 18° |
| 2026-04-23 13:19 | 23.82779 | 123.76248 | 40892 ft | 501 kts | 18° |
| 2026-04-23 13:20 | 23.89149 | 123.79339 | 40890 ft | 500 kts | 18° |
| 2026-04-23 13:20 | 23.95471 | 123.82409 | 40894 ft | 501 kts | 18° |
| 2026-04-23 13:21 | 24.01859 | 123.85515 | 40894 ft | 502 kts | 18° |
| 2026-04-23 13:21 | 24.08237 | 123.88620 | 40894 ft | 502 kts | 18° |
| 2026-04-23 13:22 | 24.14616 | 123.91729 | 40896 ft | 501 kts | 18° |
| 2026-04-23 13:22 | 24.20991 | 123.94838 | 40894 ft | 501 kts | 18° |
| 2026-04-23 13:23 | 24.27369 | 123.97953 | 40896 ft | 502 kts | 18° |
| 2026-04-23 13:23 | 24.33745 | 124.01070 | 40899 ft | 501 kts | 18° |
| 2026-04-23 13:24 | 24.40122 | 124.04192 | 40883 ft | 501 kts | 18° |
| 2026-04-23 13:24 | 24.46460 | 124.07297 | 40889 ft | 502 kts | 18° |
| 2026-04-23 13:25 | 24.52837 | 124.10425 | 40896 ft | 503 kts | 18° |
| 2026-04-23 13:25 | 24.59235 | 124.13567 | 40900 ft | 504 kts | 18° |
| 2026-04-23 13:26 | 24.65634 | 124.16713 | 40904 ft | 503 kts | 18° |
| 2026-04-23 13:26 | 24.72033 | 124.19862 | 40903 ft | 504 kts | 18° |
| 2026-04-23 13:27 | 24.78435 | 124.23017 | 40907 ft | 504 kts | 18° |
| 2026-04-23 13:27 | 24.84832 | 124.26173 | 40909 ft | 505 kts | 18° |
| 2026-04-23 13:28 | 24.91221 | 124.29328 | 40913 ft | 505 kts | 18° |
| 2026-04-23 13:28 | 24.97653 | 124.32509 | 40907 ft | 505 kts | 18° |
| 2026-04-23 13:29 | 25.04050 | 124.35675 | 40911 ft | 504 kts | 17° |
| 2026-04-23 13:29 | 25.10465 | 124.38853 | 40911 ft | 505 kts | 17° |
| 2026-04-23 13:30 | 25.16849 | 124.42021 | 40921 ft | 506 kts | 17° |
| 2026-04-23 13:30 | 25.23284 | 124.45218 | 40909 ft | 506 kts | 17° |
| 2026-04-23 13:31 | 25.29723 | 124.48419 | 40917 ft | 507 kts | 17° |
| 2026-04-23 13:31 | 25.36158 | 124.51623 | 40920 ft | 508 kts | 17° |
| 2026-04-23 13:32 | 25.42604 | 124.54836 | 40916 ft | 508 kts | 17° |
| 2026-04-23 13:32 | 25.49023 | 124.58040 | 40918 ft | 508 kts | 17° |
| 2026-04-23 13:33 | 25.55463 | 124.61257 | 40915 ft | 507 kts | 17° |
| 2026-04-23 13:33 | 25.61902 | 124.64478 | 40920 ft | 507 kts | 17° |
| 2026-04-23 13:34 | 25.68340 | 124.67702 | 40920 ft | 508 kts | 17° |
| 2026-04-23 13:34 | 25.74756 | 124.70919 | 40918 ft | 509 kts | 17° |
| 2026-04-23 13:35 | 25.81221 | 124.74164 | 40918 ft | 510 kts | 17° |
| 2026-04-23 13:35 | 25.87687 | 124.77416 | 40921 ft | 509 kts | 17° |
| 2026-04-23 13:36 | 25.94121 | 124.80652 | 40630 ft | 507 kts | 17° |
| 2026-04-23 13:36 | 25.97326 | 124.82267 | 40249 ft | 505 kts | 17° |
| 2026-04-23 13:36 | 26.00520 | 124.83878 | 39775 ft | 504 kts | 17° |
| 2026-04-23 13:36 | 26.03717 | 124.85488 | 39285 ft | 505 kts | 17° |
| 2026-04-23 13:37 | 26.06900 | 124.87097 | 38788 ft | 497 kts | 17° |
| 2026-04-23 13:37 | 26.10023 | 124.88678 | 38259 ft | 490 kts | 17° |
| 2026-04-23 13:37 | 26.13067 | 124.90215 | 37693 ft | 484 kts | 17° |
| 2026-04-23 13:37 | 26.16152 | 124.91772 | 37142 ft | 477 kts | 17° |
| 2026-04-23 13:38 | 26.19123 | 124.93274 | 36610 ft | 471 kts | 17° |
| 2026-04-23 13:38 | 26.22020 | 124.94971 | 36123 ft | 473 kts | 27° |
| 2026-04-23 13:38 | 26.24656 | 124.97275 | 35644 ft | 479 kts | 39° |
| 2026-04-23 13:38 | 26.26849 | 125.00053 | 35213 ft | 488 kts | 51° |
| 2026-04-23 13:39 | 26.28588 | 125.03328 | 34779 ft | 495 kts | 64° |
| 2026-04-23 13:39 | 26.29751 | 125.06951 | 34335 ft | 499 kts | 76° |
| 2026-04-23 13:39 | 26.30277 | 125.10783 | 33905 ft | 499 kts | 89° |
| 2026-04-23 13:39 | 26.30138 | 125.14635 | 33415 ft | 494 kts | 101° |
| 2026-04-23 13:40 | 26.29677 | 125.18368 | 32866 ft | 483 kts | 101° |
| 2026-04-23 13:40 | 26.29188 | 125.22086 | 32330 ft | 485 kts | 101° |
| 2026-04-23 13:40 | 26.28685 | 125.25807 | 31811 ft | 486 kts | 101° |
| 2026-04-23 13:40 | 26.28197 | 125.29538 | 31302 ft | 488 kts | 101° |
| 2026-04-23 13:41 | 26.27714 | 125.33294 | 30775 ft | 489 kts | 101° |
| 2026-04-23 13:41 | 26.27223 | 125.37043 | 30266 ft | 489 kts | 101° |
| 2026-04-23 13:41 | 26.26723 | 125.40795 | 29719 ft | 490 kts | 101° |
| 2026-04-23 13:41 | 26.26227 | 125.44539 | 29125 ft | 490 kts | 101° |
| 2026-04-23 13:42 | 26.25731 | 125.48311 | 28535 ft | 489 kts | 101° |
| 2026-04-23 13:42 | 26.25237 | 125.52056 | 27965 ft | 488 kts | 101° |
| 2026-04-23 13:42 | 26.24744 | 125.55751 | 27402 ft | 487 kts | 101° |
| 2026-04-23 13:42 | 26.24248 | 125.59474 | 26860 ft | 486 kts | 101° |
| 2026-04-23 13:43 | 26.23746 | 125.63242 | 26300 ft | 484 kts | 101° |
| 2026-04-23 13:43 | 26.23253 | 125.66943 | 25764 ft | 482 kts | 101° |
| 2026-04-23 13:43 | 26.22759 | 125.70624 | 25243 ft | 480 kts | 101° |
| 2026-04-23 13:43 | 26.22266 | 125.74299 | 24719 ft | 478 kts | 101° |
| 2026-04-23 13:44 | 26.21781 | 125.77904 | 24225 ft | 475 kts | 101° |
| 2026-04-23 13:44 | 26.21293 | 125.81531 | 23730 ft | 473 kts | 101° |
| 2026-04-23 13:44 | 26.20806 | 125.85145 | 23175 ft | 470 kts | 101° |
| 2026-04-23 13:44 | 26.20320 | 125.88737 | 22603 ft | 467 kts | 101° |
| 2026-04-23 13:45 | 26.19994 | 125.91142 | 22267 ft | 464 kts | 101° |
| 2026-04-23 13:45 | 26.19363 | 125.95803 | 21644 ft | 456 kts | 101° |
| 2026-04-23 13:45 | 26.18891 | 125.99268 | 21177 ft | 451 kts | 101° |
| 2026-04-23 13:45 | 26.18423 | 126.02702 | 20717 ft | 446 kts | 101° |
| 2026-04-23 13:46 | 26.17960 | 126.06099 | 20267 ft | 441 kts | 101° |
| 2026-04-23 13:46 | 26.17501 | 126.09459 | 19821 ft | 436 kts | 101° |
| 2026-04-23 13:46 | 26.17046 | 126.12777 | 19385 ft | 432 kts | 101° |
| 2026-04-23 13:46 | 26.16599 | 126.16034 | 18958 ft | 427 kts | 101° |
| 2026-04-23 13:47 | 26.16153 | 126.19284 | 18531 ft | 423 kts | 101° |
| 2026-04-23 13:47 | 26.15710 | 126.22501 | 18094 ft | 419 kts | 101° |
| 2026-04-23 13:47 | 26.15269 | 126.25697 | 17603 ft | 415 kts | 101° |
| 2026-04-23 13:47 | 26.14834 | 126.28852 | 17114 ft | 410 kts | 101° |
| 2026-04-23 13:48 | 26.14401 | 126.31979 | 16646 ft | 406 kts | 101° |
| 2026-04-23 13:48 | 26.13972 | 126.35071 | 16177 ft | 402 kts | 101° |
| 2026-04-23 13:48 | 26.13548 | 126.38126 | 15714 ft | 398 kts | 101° |
| 2026-04-23 13:48 | 26.13129 | 126.41144 | 15263 ft | 394 kts | 101° |
| 2026-04-23 13:49 | 26.12710 | 126.44155 | 14815 ft | 390 kts | 101° |
| 2026-04-23 13:49 | 26.12294 | 126.47136 | 14371 ft | 387 kts | 101° |
| 2026-04-23 13:49 | 26.12021 | 126.49093 | 14080 ft | 384 kts | 101° |
| 2026-04-23 13:49 | 26.11480 | 126.52962 | 13484 ft | 379 kts | 102° |
| 2026-04-23 13:50 | 26.11207 | 126.54909 | 13175 ft | 376 kts | 102° |
| 2026-04-23 13:50 | 26.10678 | 126.58685 | 12608 ft | 370 kts | 101° |
| 2026-04-23 13:50 | 26.10285 | 126.61486 | 12209 ft | 358 kts | 102° |
| 2026-04-23 13:50 | 26.10033 | 126.63291 | 11967 ft | 342 kts | 102° |
| 2026-04-23 13:51 | 26.09677 | 126.65832 | 11649 ft | 324 kts | 102° |
| 2026-04-23 13:51 | 26.09329 | 126.68272 | 11354 ft | 322 kts | 102° |
| 2026-04-23 13:51 | 26.08982 | 126.70718 | 11055 ft | 317 kts | 102° |
| 2026-04-23 13:51 | 26.08643 | 126.73125 | 10781 ft | 312 kts | 102° |
| 2026-04-23 13:52 | 26.08308 | 126.75497 | 10517 ft | 309 kts | 102° |
| 2026-04-23 13:52 | 26.07972 | 126.77860 | 10253 ft | 308 kts | 102° |
| 2026-04-23 13:52 | 26.07638 | 126.80214 | 9992 ft | 307 kts | 102° |
| 2026-04-23 13:52 | 26.07306 | 126.82555 | 9735 ft | 304 kts | 102° |
| 2026-04-23 13:53 | 26.06976 | 126.84876 | 9468 ft | 303 kts | 101° |
| 2026-04-23 13:53 | 26.06646 | 126.87185 | 9212 ft | 303 kts | 101° |
| 2026-04-23 13:53 | 26.06322 | 126.89463 | 8964 ft | 302 kts | 101° |
| 2026-04-23 13:53 | 26.05994 | 126.91763 | 8727 ft | 301 kts | 101° |
| 2026-04-23 13:54 | 26.05666 | 126.94057 | 8467 ft | 299 kts | 101° |
| 2026-04-23 13:54 | 26.05340 | 126.96338 | 8217 ft | 298 kts | 101° |
| 2026-04-23 13:54 | 26.05014 | 126.98613 | 7966 ft | 297 kts | 101° |
| 2026-04-23 13:54 | 26.04690 | 127.00870 | 7739 ft | 296 kts | 101° |
| 2026-04-23 13:55 | 26.04366 | 127.03130 | 7499 ft | 295 kts | 101° |
| 2026-04-23 13:55 | 26.04043 | 127.05377 | 7252 ft | 293 kts | 101° |
| 2026-04-23 13:55 | 26.03721 | 127.07616 | 7017 ft | 292 kts | 100° |
| 2026-04-23 13:55 | 26.03401 | 127.09839 | 6782 ft | 292 kts | 100° |
| 2026-04-23 13:56 | 26.03080 | 127.12066 | 6548 ft | 291 kts | 100° |
| 2026-04-23 13:56 | 26.02761 | 127.14280 | 6312 ft | 289 kts | 100° |
| 2026-04-23 13:56 | 26.02443 | 127.16481 | 6068 ft | 288 kts | 100° |
| 2026-04-23 13:56 | 26.02131 | 127.18643 | 5828 ft | 287 kts | 100° |
| 2026-04-23 13:57 | 26.01814 | 127.20830 | 5581 ft | 285 kts | 101° |
| 2026-04-23 13:57 | 26.01502 | 127.22980 | 5358 ft | 278 kts | 101° |
| 2026-04-23 13:57 | 26.01198 | 127.25077 | 5142 ft | 270 kts | 101° |
| 2026-04-23 13:57 | 26.00902 | 127.27117 | 4938 ft | 263 kts | 101° |
| 2026-04-23 13:58 | 26.00613 | 127.29099 | 4735 ft | 258 kts | 101° |
| 2026-04-23 13:58 | 26.00329 | 127.31052 | 4506 ft | 253 kts | 101° |
| 2026-04-23 13:58 | 26.00050 | 127.32971 | 4268 ft | 249 kts | 101° |
| 2026-04-23 13:58 | 25.99777 | 127.34837 | 4063 ft | 246 kts | 101° |
| 2026-04-23 13:59 | 25.99503 | 127.36724 | 3853 ft | 242 kts | 101° |
| 2026-04-23 13:59 | 25.99235 | 127.38551 | 3642 ft | 237 kts | 101° |
| 2026-04-23 13:59 | 25.98976 | 127.40322 | 3431 ft | 233 kts | 101° |
| 2026-04-23 13:59 | 25.98711 | 127.42122 | 2847 ft | 246 kts | 101° |
| 2026-04-23 14:00 | 25.98514 | 127.43453 | 2619 ft | 267 kts | 100° |
| 2026-04-23 14:00 | 25.98131 | 127.46077 | 2103 ft | 250 kts | 99° |
| 2026-04-23 14:00 | 25.97858 | 127.47950 | 2011 ft | 237 kts | 99° |
| 2026-04-23 14:00 | 25.97600 | 127.49707 | 2005 ft | 222 kts | 99° |
| 2026-04-23 14:01 | 25.97358 | 127.51348 | 1996 ft | 210 kts | 99° |
| 2026-04-23 14:01 | 25.97129 | 127.52911 | 1982 ft | 201 kts | 99° |
| 2026-04-23 14:01 | 25.96906 | 127.54419 | 1988 ft | 198 kts | 99° |
| 2026-04-23 14:01 | 25.96685 | 127.55914 | 1991 ft | 196 kts | 99° |
| 2026-04-23 14:02 | 25.96463 | 127.57419 | 2001 ft | 199 kts | 99° |
| 2026-04-23 14:02 | 25.96559 | 127.58929 | 1947 ft | 198 kts | 64° |
| 2026-04-23 14:02 | 25.97449 | 127.60026 | 1987 ft | 193 kts | 34° |
| 2026-04-23 14:02 | 25.98579 | 127.60854 | 1997 ft | 195 kts | 30° |
| 2026-04-23 14:03 | 25.99718 | 127.61676 | 2002 ft | 195 kts | 31° |
| 2026-04-23 14:03 | 26.00852 | 127.62516 | 2006 ft | 195 kts | 31° |
| 2026-04-23 14:03 | 26.01968 | 127.63348 | 2010 ft | 191 kts | 31° |
| 2026-04-23 14:03 | 26.03063 | 127.64162 | 2002 ft | 186 kts | 31° |
| 2026-04-23 14:04 | 26.04106 | 127.64939 | 2005 ft | 175 kts | 31° |
| 2026-04-23 14:04 | 26.05196 | 127.65373 | 1932 ft | 163 kts | 358° |
| 2026-04-23 14:04 | 26.06280 | 127.65297 | 1974 ft | 156 kts | 358° |
| 2026-04-23 14:04 | 26.07356 | 127.65301 | 1988 ft | 151 kts | 354° |
| 2026-04-23 14:05 | 26.08387 | 127.65261 | 1903 ft | 149 kts | 354° |
| 2026-04-23 14:05 | 26.09393 | 127.65203 | 1706 ft | 144 kts | 353° |
| 2026-04-23 14:05 | 26.10385 | 127.65142 | 1536 ft | 141 kts | 353° |
| 2026-04-23 14:05 | 26.11359 | 127.65083 | 1345 ft | 139 kts | 353° |
| 2026-04-23 14:06 | 26.12321 | 127.65032 | 1164 ft | 137 kts | 354° |
| 2026-04-23 14:06 | 26.13274 | 127.64978 | 986 ft | 137 kts | 355° |
| 2026-04-23 14:06 | 26.14225 | 127.64923 | 813 ft | 136 kts | 355° |
| 2026-04-23 14:06 | 26.15173 | 127.64867 | 647 ft | 136 kts | 356° |
| 2026-04-23 14:07 | 26.16092 | 127.64790 | 481 ft | 132 kts | 354° |
| 2026-04-23 14:07 | 26.17942 | 127.64668 | 138 ft | 133 kts | 356° |
| 2026-04-23 14:07 | 26.18836 | 127.64635 | 28 ft | 125 kts | 357° |
| 2026-04-23 14:08 | 26.19530 | 127.64598 | 24 ft | 63 kts | 357° |
| 2026-04-23 14:08 | 26.19908 | 127.64580 | 25 ft | 48 kts | 358° |
| 2026-04-23 14:08 | 26.20178 | 127.64584 | 28 ft | 26 kts | 12° |
| 2026-04-23 14:08 | 26.20320 | 127.64642 | 30 ft | 16 kts | 25° |
| 2026-04-23 14:09 | 26.20411 | 127.64695 | 30 ft | 15 kts | 28° |
| 2026-04-23 14:09 | 26.20421 | 127.64701 | 30 ft | 0 kts | 28° |
| 2026-04-23 14:09 | 26.20428 | 127.64705 | 29 ft | 2 kts | 27° |
| 2026-04-23 14:10 | 26.20444 | 127.64714 | 30 ft | 3 kts | 27° |
| 2026-04-23 14:10 | 26.20471 | 127.64730 | 28 ft | 5 kts | 27° |
| 2026-04-23 14:10 | 26.20521 | 127.64753 | 29 ft | 10 kts | 11° |
| 2026-04-23 14:10 | 26.20592 | 127.64760 | 29 ft | 6 kts | 25° |
| 2026-04-23 14:11 | 26.20624 | 127.64792 | 28 ft | 8 kts | 58° |
| 2026-04-23 14:11 | 26.20634 | 127.64868 | 25 ft | 12 kts | 88° |
| 2026-04-23 14:11 | 26.20646 | 127.64898 | 30 ft | 3 kts | 27° |
| 2026-04-23 14:11 | 26.20675 | 127.64909 | 29 ft | 6 kts | 22° |
| 2026-04-23 14:12 | 26.20702 | 127.64923 | 29 ft | 1 kts | 26° |
| 2026-04-23 14:12 | 26.20705 | 127.64924 | 29 ft | 0 kts | 26° |
| 2026-04-23 14:26 | 26.20704 | 127.64924 | 25 ft | 0 kts | 26° |